sensor_id;sensor_type;location;lat;lon;timestamp;P1;durP1;ratioP1;P2;durP2;ratioP2
40637;SDS011;26336;44.696;10.622;2023-02-01T00:01:06;21.97;;;14.17;;
40637;SDS011;26336;44.696;10.622;2023-02-01T00:04:11;22.27;;;13.13;;
40637;SDS011;26336;44.696;10.622;2023-02-01T00:07:15;23.90;;;13.93;;
40637;SDS011;26336;44.696;10.622;2023-02-01T00:10:19;26.47;;;13.73;;
40637;SDS011;26336;44.696;10.622;2023-02-01T00:13:23;22.00;;;13.63;;
40637;SDS011;26336;44.696;10.622;2023-02-01T00:16:27;22.60;;;13.43;;
40637;SDS011;26336;44.696;10.622;2023-02-01T00:19:33;21.80;;;14.10;;
40637;SDS011;26336;44.696;10.622;2023-02-01T00:22:37;23.30;;;13.17;;
40637;SDS011;26336;44.696;10.622;2023-02-01T00:25:41;21.17;;;13.37;;
40637;SDS011;26336;44.696;10.622;2023-02-01T00:28:45;24.60;;;13.63;;
40637;SDS011;26336;44.696;10.622;2023-02-01T00:31:49;23.03;;;13.63;;
40637;SDS011;26336;44.696;10.622;2023-02-01T00:34:54;23.37;;;12.77;;
40637;SDS011;26336;44.696;10.622;2023-02-01T00:37:58;21.70;;;13.53;;
40637;SDS011;26336;44.696;10.622;2023-02-01T00:41:07;22.93;;;14.07;;
40637;SDS011;26336;44.696;10.622;2023-02-01T00:44:14;23.07;;;13.67;;
40637;SDS011;26336;44.696;10.622;2023-02-01T00:47:18;24.73;;;13.90;;
40637;SDS011;26336;44.696;10.622;2023-02-01T00:50:23;23.73;;;13.83;;
40637;SDS011;26336;44.696;10.622;2023-02-01T00:53:27;25.00;;;13.07;;
40637;SDS011;26336;44.696;10.622;2023-02-01T00:56:31;24.00;;;12.80;;
40637;SDS011;26336;44.696;10.622;2023-02-01T00:59:36;29.77;;;14.03;;
40637;SDS011;26336;44.696;10.622;2023-02-01T01:02:41;24.27;;;13.10;;
40637;SDS011;26336;44.696;10.622;2023-02-01T01:05:45;21.60;;;11.90;;
40637;SDS011;26336;44.696;10.622;2023-02-01T01:08:53;22.10;;;11.57;;
40637;SDS011;26336;44.696;10.622;2023-02-01T01:11:58;21.73;;;12.07;;
40637;SDS011;26336;44.696;10.622;2023-02-01T01:15:07;18.90;;;10.57;;
40637;SDS011;26336;44.696;10.622;2023-02-01T01:18:14;20.73;;;11.03;;
40637;SDS011;26336;44.696;10.622;2023-02-01T01:21:17;16.93;;;10.23;;
40637;SDS011;26336;44.696;10.622;2023-02-01T01:24:22;17.87;;;10.50;;
40637;SDS011;26336;44.696;10.622;2023-02-01T01:27:26;18.47;;;11.00;;
40637;SDS011;26336;44.696;10.622;2023-02-01T01:30:30;16.77;;;9.20;;
40637;SDS011;26336;44.696;10.622;2023-02-01T01:33:34;16.93;;;9.47;;
40637;SDS011;26336;44.696;10.622;2023-02-01T01:36:38;15.70;;;9.23;;
40637;SDS011;26336;44.696;10.622;2023-02-01T01:39:42;20.03;;;9.57;;
40637;SDS011;26336;44.696;10.622;2023-02-01T01:42:46;15.57;;;8.90;;
40637;SDS011;26336;44.696;10.622;2023-02-01T01:45:51;14.67;;;8.63;;
40637;SDS011;26336;44.696;10.622;2023-02-01T01:49:12;15.53;;;9.23;;
40637;SDS011;26336;44.696;10.622;2023-02-01T01:52:20;15.13;;;9.03;;
40637;SDS011;26336;44.696;10.622;2023-02-01T01:55:24;13.67;;;8.47;;
40637;SDS011;26336;44.696;10.622;2023-02-01T01:58:30;15.27;;;8.97;;
40637;SDS011;26336;44.696;10.622;2023-02-01T02:01:36;17.17;;;8.43;;
40637;SDS011;26336;44.696;10.622;2023-02-01T02:04:40;16.60;;;9.43;;
40637;SDS011;26336;44.696;10.622;2023-02-01T02:07:46;14.57;;;8.50;;
40637;SDS011;26336;44.696;10.622;2023-02-01T02:10:52;15.57;;;8.57;;
40637;SDS011;26336;44.696;10.622;2023-02-01T02:14:02;13.60;;;8.73;;
40637;SDS011;26336;44.696;10.622;2023-02-01T02:34:11;18.23;;;10.33;;
40637;SDS011;26336;44.696;10.622;2023-02-01T02:37:39;16.77;;;10.03;;
40637;SDS011;26336;44.696;10.622;2023-02-01T02:40:49;17.57;;;9.80;;
40637;SDS011;26336;44.696;10.622;2023-02-01T02:44:08;16.83;;;10.10;;
40637;SDS011;26336;44.696;10.622;2023-02-01T02:51:06;19.07;;;10.57;;
40637;SDS011;26336;44.696;10.622;2023-02-01T02:54:34;16.83;;;9.20;;
40637;SDS011;26336;44.696;10.622;2023-02-01T02:57:50;13.93;;;8.93;;
40637;SDS011;26336;44.696;10.622;2023-02-01T03:01:13;15.88;;;8.60;;
40637;SDS011;26336;44.696;10.622;2023-02-01T03:04:35;16.67;;;9.43;;
40637;SDS011;26336;44.696;10.622;2023-02-01T03:07:57;15.17;;;9.83;;
40637;SDS011;26336;44.696;10.622;2023-02-01T03:11:05;15.73;;;8.83;;
40637;SDS011;26336;44.696;10.622;2023-02-01T03:14:11;16.93;;;9.27;;
40637;SDS011;26336;44.696;10.622;2023-02-01T03:17:20;18.07;;;10.53;;
40637;SDS011;26336;44.696;10.622;2023-02-01T03:20:29;17.67;;;10.10;;
40637;SDS011;26336;44.696;10.622;2023-02-01T03:23:36;14.73;;;9.07;;
40637;SDS011;26336;44.696;10.622;2023-02-01T03:26:44;16.07;;;8.53;;
40637;SDS011;26336;44.696;10.622;2023-02-01T03:33:02;15.43;;;9.43;;
40637;SDS011;26336;44.696;10.622;2023-02-01T03:39:30;18.83;;;10.00;;
40637;SDS011;26336;44.696;10.622;2023-02-01T03:42:48;13.90;;;8.90;;
40637;SDS011;26336;44.696;10.622;2023-02-01T03:45:57;18.07;;;9.60;;
40637;SDS011;26336;44.696;10.622;2023-02-01T03:49:05;18.10;;;10.63;;
40637;SDS011;26336;44.696;10.622;2023-02-01T03:52:15;16.33;;;9.83;;
40637;SDS011;26336;44.696;10.622;2023-02-01T03:55:23;17.03;;;10.00;;
40637;SDS011;26336;44.696;10.622;2023-02-01T03:58:30;14.37;;;8.27;;
40637;SDS011;26336;44.696;10.622;2023-02-01T04:01:34;17.60;;;10.13;;
40637;SDS011;26336;44.696;10.622;2023-02-01T04:04:38;17.50;;;9.80;;
40637;SDS011;26336;44.696;10.622;2023-02-01T04:07:42;19.47;;;10.57;;
40637;SDS011;26336;44.696;10.622;2023-02-01T04:10:46;18.33;;;11.20;;
40637;SDS011;26336;44.696;10.622;2023-02-01T04:13:50;17.03;;;9.77;;
40637;SDS011;26336;44.696;10.622;2023-02-01T04:16:54;18.03;;;9.83;;
40637;SDS011;26336;44.696;10.622;2023-02-01T04:19:58;17.87;;;10.97;;
40637;SDS011;26336;44.696;10.622;2023-02-01T04:23:02;17.40;;;10.13;;
40637;SDS011;26336;44.696;10.622;2023-02-01T04:26:06;20.07;;;10.60;;
40637;SDS011;26336;44.696;10.622;2023-02-01T04:29:09;20.97;;;10.00;;
40637;SDS011;26336;44.696;10.622;2023-02-01T04:32:13;17.70;;;9.53;;
40637;SDS011;26336;44.696;10.622;2023-02-01T04:35:19;21.37;;;10.37;;
40637;SDS011;26336;44.696;10.622;2023-02-01T04:38:23;16.70;;;9.90;;
40637;SDS011;26336;44.696;10.622;2023-02-01T04:41:26;17.80;;;10.90;;
40637;SDS011;26336;44.696;10.622;2023-02-01T04:44:31;19.07;;;11.30;;
40637;SDS011;26336;44.696;10.622;2023-02-01T04:47:35;19.77;;;10.57;;
40637;SDS011;26336;44.696;10.622;2023-02-01T04:50:39;19.97;;;10.57;;
40637;SDS011;26336;44.696;10.622;2023-02-01T04:53:43;17.33;;;9.90;;
40637;SDS011;26336;44.696;10.622;2023-02-01T04:56:47;15.97;;;9.20;;
40637;SDS011;26336;44.696;10.622;2023-02-01T04:59:51;18.27;;;10.00;;
40637;SDS011;26336;44.696;10.622;2023-02-01T05:02:55;15.43;;;10.53;;
40637;SDS011;26336;44.696;10.622;2023-02-01T05:05:59;17.33;;;9.50;;
40637;SDS011;26336;44.696;10.622;2023-02-01T05:09:03;19.00;;;10.40;;
40637;SDS011;26336;44.696;10.622;2023-02-01T05:12:08;20.70;;;10.23;;
40637;SDS011;26336;44.696;10.622;2023-02-01T05:15:31;19.70;;;9.93;;
40637;SDS011;26336;44.696;10.622;2023-02-01T05:18:35;18.67;;;9.97;;
40637;SDS011;26336;44.696;10.622;2023-02-01T05:21:39;19.20;;;10.17;;
40637;SDS011;26336;44.696;10.622;2023-02-01T05:24:43;18.97;;;10.83;;
40637;SDS011;26336;44.696;10.622;2023-02-01T05:27:47;17.07;;;9.70;;
40637;SDS011;26336;44.696;10.622;2023-02-01T05:30:51;17.83;;;10.50;;
40637;SDS011;26336;44.696;10.622;2023-02-01T05:33:55;16.10;;;8.90;;
40637;SDS011;26336;44.696;10.622;2023-02-01T05:36:59;18.50;;;10.67;;
40637;SDS011;26336;44.696;10.622;2023-02-01T05:40:03;16.10;;;8.73;;
40637;SDS011;26336;44.696;10.622;2023-02-01T05:43:07;21.00;;;9.83;;
40637;SDS011;26336;44.696;10.622;2023-02-01T05:46:11;19.73;;;9.83;;
40637;SDS011;26336;44.696;10.622;2023-02-01T05:49:16;17.10;;;10.07;;
40637;SDS011;26336;44.696;10.622;2023-02-01T05:52:20;19.27;;;10.13;;
40637;SDS011;26336;44.696;10.622;2023-02-01T05:55:24;20.53;;;10.10;;
40637;SDS011;26336;44.696;10.622;2023-02-01T05:58:28;15.13;;;9.73;;
40637;SDS011;26336;44.696;10.622;2023-02-01T06:01:32;18.87;;;10.27;;
40637;SDS011;26336;44.696;10.622;2023-02-01T06:04:36;17.07;;;9.70;;
40637;SDS011;26336;44.696;10.622;2023-02-01T06:07:40;16.87;;;9.80;;
40637;SDS011;26336;44.696;10.622;2023-02-01T06:10:44;17.30;;;9.37;;
40637;SDS011;26336;44.696;10.622;2023-02-01T06:13:48;18.67;;;11.57;;
40637;SDS011;26336;44.696;10.622;2023-02-01T06:16:52;17.67;;;10.00;;
40637;SDS011;26336;44.696;10.622;2023-02-01T06:19:56;17.60;;;9.43;;
40637;SDS011;26336;44.696;10.622;2023-02-01T06:23:00;14.93;;;8.87;;
40637;SDS011;26336;44.696;10.622;2023-02-01T06:26:05;17.53;;;9.23;;
40637;SDS011;26336;44.696;10.622;2023-02-01T06:29:11;20.70;;;11.37;;
40637;SDS011;26336;44.696;10.622;2023-02-01T06:32:15;22.10;;;11.17;;
40637;SDS011;26336;44.696;10.622;2023-02-01T06:35:20;21.40;;;10.43;;
40637;SDS011;26336;44.696;10.622;2023-02-01T06:38:24;19.47;;;9.50;;
40637;SDS011;26336;44.696;10.622;2023-02-01T06:41:29;15.90;;;9.93;;
40637;SDS011;26336;44.696;10.622;2023-02-01T06:44:33;17.47;;;9.70;;
40637;SDS011;26336;44.696;10.622;2023-02-01T06:47:37;19.80;;;10.47;;
40637;SDS011;26336;44.696;10.622;2023-02-01T06:50:41;19.43;;;10.47;;
40637;SDS011;26336;44.696;10.622;2023-02-01T06:53:45;24.90;;;11.53;;
40637;SDS011;26336;44.696;10.622;2023-02-01T06:56:49;19.97;;;11.50;;
40637;SDS011;26336;44.696;10.622;2023-02-01T06:59:53;25.40;;;12.80;;
40637;SDS011;26336;44.696;10.622;2023-02-01T07:02:57;20.80;;;12.27;;
40637;SDS011;26336;44.696;10.622;2023-02-01T07:06:03;18.77;;;11.73;;
40637;SDS011;26336;44.696;10.622;2023-02-01T07:09:08;26.27;;;13.00;;
40637;SDS011;26336;44.696;10.622;2023-02-01T07:12:12;19.97;;;11.73;;
40637;SDS011;26336;44.696;10.622;2023-02-01T07:15:16;20.50;;;11.00;;
40637;SDS011;26336;44.696;10.622;2023-02-01T07:18:20;20.90;;;11.37;;
40637;SDS011;26336;44.696;10.622;2023-02-01T07:21:24;23.63;;;13.10;;
40637;SDS011;26336;44.696;10.622;2023-02-01T07:24:27;22.67;;;12.17;;
40637;SDS011;26336;44.696;10.622;2023-02-01T07:27:35;26.90;;;13.13;;
40637;SDS011;26336;44.696;10.622;2023-02-01T07:30:39;27.87;;;13.13;;
40637;SDS011;26336;44.696;10.622;2023-02-01T07:33:43;23.83;;;14.30;;
40637;SDS011;26336;44.696;10.622;2023-02-01T07:36:47;22.63;;;13.00;;
40637;SDS011;26336;44.696;10.622;2023-02-01T07:39:51;24.40;;;13.93;;
40637;SDS011;26336;44.696;10.622;2023-02-01T07:42:55;27.83;;;13.03;;
40637;SDS011;26336;44.696;10.622;2023-02-01T07:45:58;19.47;;;12.30;;
40637;SDS011;26336;44.696;10.622;2023-02-01T07:49:02;23.73;;;13.10;;
40637;SDS011;26336;44.696;10.622;2023-02-01T07:52:06;22.37;;;12.63;;
40637;SDS011;26336;44.696;10.622;2023-02-01T07:55:10;24.40;;;13.00;;
40637;SDS011;26336;44.696;10.622;2023-02-01T07:58:14;25.33;;;13.13;;
40637;SDS011;26336;44.696;10.622;2023-02-01T08:01:19;29.60;;;12.67;;
40637;SDS011;26336;44.696;10.622;2023-02-01T08:04:27;24.53;;;12.87;;
40637;SDS011;26336;44.696;10.622;2023-02-01T08:07:32;23.63;;;12.23;;
40637;SDS011;26336;44.696;10.622;2023-02-01T08:10:36;23.40;;;14.03;;
40637;SDS011;26336;44.696;10.622;2023-02-01T08:13:40;26.50;;;13.77;;
40637;SDS011;26336;44.696;10.622;2023-02-01T08:16:45;34.90;;;17.53;;
40637;SDS011;26336;44.696;10.622;2023-02-01T08:19:48;28.83;;;16.83;;
40637;SDS011;26336;44.696;10.622;2023-02-01T08:22:52;34.13;;;17.77;;
40637;SDS011;26336;44.696;10.622;2023-02-01T08:26:04;32.60;;;17.87;;
40637;SDS011;26336;44.696;10.622;2023-02-01T08:29:08;33.00;;;17.90;;
40637;SDS011;26336;44.696;10.622;2023-02-01T08:32:14;36.43;;;17.30;;
40637;SDS011;26336;44.696;10.622;2023-02-01T08:35:18;36.53;;;19.77;;
40637;SDS011;26336;44.696;10.622;2023-02-01T08:38:24;40.30;;;22.13;;
40637;SDS011;26336;44.696;10.622;2023-02-01T08:41:29;33.83;;;18.43;;
40637;SDS011;26336;44.696;10.622;2023-02-01T08:44:36;37.60;;;18.17;;
40637;SDS011;26336;44.696;10.622;2023-02-01T08:47:40;31.67;;;17.80;;
40637;SDS011;26336;44.696;10.622;2023-02-01T08:50:44;31.80;;;17.30;;
40637;SDS011;26336;44.696;10.622;2023-02-01T08:53:48;35.10;;;17.90;;
40637;SDS011;26336;44.696;10.622;2023-02-01T08:56:52;32.10;;;16.67;;
40637;SDS011;26336;44.696;10.622;2023-02-01T08:59:58;30.37;;;16.67;;
40637;SDS011;26336;44.696;10.622;2023-02-01T09:03:03;32.27;;;17.97;;
40637;SDS011;26336;44.696;10.622;2023-02-01T09:06:08;29.70;;;18.00;;
40637;SDS011;26336;44.696;10.622;2023-02-01T09:09:14;37.03;;;19.07;;
40637;SDS011;26336;44.696;10.622;2023-02-01T09:12:18;31.50;;;18.33;;
40637;SDS011;26336;44.696;10.622;2023-02-01T09:15:22;33.43;;;17.03;;
40637;SDS011;26336;44.696;10.622;2023-02-01T09:18:26;33.23;;;19.33;;
40637;SDS011;26336;44.696;10.622;2023-02-01T09:21:30;33.77;;;19.23;;
40637;SDS011;26336;44.696;10.622;2023-02-01T09:24:34;32.67;;;18.87;;
40637;SDS011;26336;44.696;10.622;2023-02-01T09:27:38;33.53;;;16.37;;
40637;SDS011;26336;44.696;10.622;2023-02-01T09:30:41;29.53;;;16.60;;
40637;SDS011;26336;44.696;10.622;2023-02-01T09:33:45;29.00;;;16.33;;
40637;SDS011;26336;44.696;10.622;2023-02-01T09:36:49;25.80;;;15.87;;
40637;SDS011;26336;44.696;10.622;2023-02-01T09:39:53;31.63;;;17.03;;
40637;SDS011;26336;44.696;10.622;2023-02-01T09:49:22;36.03;;;19.42;;
40637;SDS011;26336;44.696;10.622;2023-02-01T09:53:18;31.10;;;18.87;;
40637;SDS011;26336;44.696;10.622;2023-02-01T09:56:06;32.40;;;19.38;;
40637;SDS011;26336;44.696;10.622;2023-02-01T10:02:35;37.97;;;22.77;;
40637;SDS011;26336;44.696;10.622;2023-02-01T10:09:14;46.07;;;27.17;;
40637;SDS011;26336;44.696;10.622;2023-02-01T10:12:56;49.97;;;31.33;;
40637;SDS011;26336;44.696;10.622;2023-02-01T10:25:55;45.70;;;30.33;;
40637;SDS011;26336;44.696;10.622;2023-02-01T10:29:11;50.53;;;30.37;;
40637;SDS011;26336;44.696;10.622;2023-02-01T10:32:21;49.83;;;30.93;;
40637;SDS011;26336;44.696;10.622;2023-02-01T10:35:33;47.27;;;29.27;;
40637;SDS011;26336;44.696;10.622;2023-02-01T10:38:39;44.67;;;29.23;;
40637;SDS011;26336;44.696;10.622;2023-02-01T10:41:43;43.63;;;26.40;;
40637;SDS011;26336;44.696;10.622;2023-02-01T10:44:47;42.20;;;27.27;;
40637;SDS011;26336;44.696;10.622;2023-02-01T10:47:52;40.17;;;26.13;;
40637;SDS011;26336;44.696;10.622;2023-02-01T10:51:20;46.37;;;27.07;;
40637;SDS011;26336;44.696;10.622;2023-02-01T10:54:34;45.17;;;24.47;;
40637;SDS011;26336;44.696;10.622;2023-02-01T10:57:41;38.20;;;22.57;;
40637;SDS011;26336;44.696;10.622;2023-02-01T11:00:56;34.73;;;22.00;;
40637;SDS011;26336;44.696;10.622;2023-02-01T11:04:04;32.40;;;20.90;;
40637;SDS011;26336;44.696;10.622;2023-02-01T11:07:16;29.90;;;19.27;;
40637;SDS011;26336;44.696;10.622;2023-02-01T11:10:40;35.83;;;21.00;;
40637;SDS011;26336;44.696;10.622;2023-02-01T11:13:54;35.13;;;19.67;;
40637;SDS011;26336;44.696;10.622;2023-02-01T11:23:44;29.13;;;18.87;;
40637;SDS011;26336;44.696;10.622;2023-02-01T11:26:49;30.30;;;17.50;;
40637;SDS011;26336;44.696;10.622;2023-02-01T11:29:56;30.53;;;17.40;;
40637;SDS011;26336;44.696;10.622;2023-02-01T11:33:05;27.50;;;16.00;;
40637;SDS011;26336;44.696;10.622;2023-02-01T11:36:15;29.80;;;16.07;;
40637;SDS011;26336;44.696;10.622;2023-02-01T11:39:26;27.97;;;16.33;;
40637;SDS011;26336;44.696;10.622;2023-02-01T11:42:35;28.50;;;16.40;;
40637;SDS011;26336;44.696;10.622;2023-02-01T11:46:03;33.97;;;17.63;;
40637;SDS011;26336;44.696;10.622;2023-02-01T11:49:25;29.93;;;16.13;;
40637;SDS011;26336;44.696;10.622;2023-02-01T11:52:40;26.57;;;15.80;;
40637;SDS011;26336;44.696;10.622;2023-02-01T12:03:01;30.20;;;16.20;;
40637;SDS011;26336;44.696;10.622;2023-02-01T12:10:04;25.33;;;15.67;;
40637;SDS011;26336;44.696;10.622;2023-02-01T12:13:36;30.47;;;16.83;;
40637;SDS011;26336;44.696;10.622;2023-02-01T12:24:36;25.33;;;16.23;;
40637;SDS011;26336;44.696;10.622;2023-02-01T12:27:39;32.43;;;16.63;;
40637;SDS011;26336;44.696;10.622;2023-02-01T12:47:52;29.13;;;17.13;;
40637;SDS011;26336;44.696;10.622;2023-02-01T12:51:02;30.23;;;17.00;;
40637;SDS011;26336;44.696;10.622;2023-02-01T12:54:14;34.17;;;17.77;;
40637;SDS011;26336;44.696;10.622;2023-02-01T12:57:30;25.13;;;17.27;;
40637;SDS011;26336;44.696;10.622;2023-02-01T13:00:40;30.13;;;17.57;;
40637;SDS011;26336;44.696;10.622;2023-02-01T13:07:37;28.48;;;18.00;;
40637;SDS011;26336;44.696;10.622;2023-02-01T13:17:26;28.73;;;18.13;;
40637;SDS011;26336;44.696;10.622;2023-02-01T13:20:37;32.07;;;18.80;;
40637;SDS011;26336;44.696;10.622;2023-02-01T13:23:50;31.43;;;18.87;;
40637;SDS011;26336;44.696;10.622;2023-02-01T13:26:55;25.30;;;17.37;;
40637;SDS011;26336;44.696;10.622;2023-02-01T13:30:00;36.00;;;18.70;;
40637;SDS011;26336;44.696;10.622;2023-02-01T13:39:51;32.50;;;18.57;;
40637;SDS011;26336;44.696;10.622;2023-02-01T13:43:15;27.63;;;18.93;;
40637;SDS011;26336;44.696;10.622;2023-02-01T13:46:25;33.10;;;18.73;;
40637;SDS011;26336;44.696;10.622;2023-02-01T13:49:31;32.30;;;19.40;;
40637;SDS011;26336;44.696;10.622;2023-02-01T13:52:42;22.53;;;12.60;;
40637;SDS011;26336;44.696;10.622;2023-02-01T13:56:01;29.27;;;18.53;;
40637;SDS011;26336;44.696;10.622;2023-02-01T14:19:07;29.57;;;20.03;;
40637;SDS011;26336;44.696;10.622;2023-02-01T14:22:33;34.77;;;18.57;;
40637;SDS011;26336;44.696;10.622;2023-02-01T14:25:38;37.67;;;20.63;;
40637;SDS011;26336;44.696;10.622;2023-02-01T14:28:44;32.50;;;18.90;;
40637;SDS011;26336;44.696;10.622;2023-02-01T14:35:24;29.47;;;19.00;;
40637;SDS011;26336;44.696;10.622;2023-02-01T14:38:30;33.57;;;17.97;;
40637;SDS011;26336;44.696;10.622;2023-02-01T14:41:35;27.40;;;17.40;;
40637;SDS011;26336;44.696;10.622;2023-02-01T14:44:43;30.37;;;19.77;;
40637;SDS011;26336;44.696;10.622;2023-02-01T14:47:54;32.60;;;18.67;;
40637;SDS011;26336;44.696;10.622;2023-02-01T14:51:18;24.87;;;14.37;;
40637;SDS011;26336;44.696;10.622;2023-02-01T14:54:24;28.90;;;17.77;;
40637;SDS011;26336;44.696;10.622;2023-02-01T14:57:29;25.77;;;14.87;;
40637;SDS011;26336;44.696;10.622;2023-02-01T15:00:33;30.30;;;17.73;;
40637;SDS011;26336;44.696;10.622;2023-02-01T15:03:46;32.23;;;18.77;;
40637;SDS011;26336;44.696;10.622;2023-02-01T15:07:05;34.50;;;19.83;;
40637;SDS011;26336;44.696;10.622;2023-02-01T15:10:10;25.90;;;17.23;;
40637;SDS011;26336;44.696;10.622;2023-02-01T15:13:19;34.83;;;19.07;;
40637;SDS011;26336;44.696;10.622;2023-02-01T15:16:26;23.80;;;16.60;;
40637;SDS011;26336;44.696;10.622;2023-02-01T15:19:30;31.23;;;18.20;;
40637;SDS011;26336;44.696;10.622;2023-02-01T15:22:33;28.40;;;17.90;;
40637;SDS011;26336;44.696;10.622;2023-02-01T15:25:38;30.90;;;18.97;;
40637;SDS011;26336;44.696;10.622;2023-02-01T15:28:42;31.23;;;17.47;;
40637;SDS011;26336;44.696;10.622;2023-02-01T15:31:47;30.93;;;18.30;;
40637;SDS011;26336;44.696;10.622;2023-02-01T15:34:53;31.30;;;17.37;;
40637;SDS011;26336;44.696;10.622;2023-02-01T15:41:23;30.20;;;17.70;;
40637;SDS011;26336;44.696;10.622;2023-02-01T15:44:34;32.03;;;19.30;;
40637;SDS011;26336;44.696;10.622;2023-02-01T15:47:56;31.45;;;18.55;;
40637;SDS011;26336;44.696;10.622;2023-02-01T15:51:01;25.77;;;17.83;;
40637;SDS011;26336;44.696;10.622;2023-02-01T15:54:07;30.30;;;19.70;;
40637;SDS011;26336;44.696;10.622;2023-02-01T15:57:23;30.07;;;19.23;;
40637;SDS011;26336;44.696;10.622;2023-02-01T16:00:44;36.80;;;19.90;;
40637;SDS011;26336;44.696;10.622;2023-02-01T16:04:01;33.60;;;21.03;;
40637;SDS011;26336;44.696;10.622;2023-02-01T16:07:24;35.50;;;21.90;;
40637;SDS011;26336;44.696;10.622;2023-02-01T16:10:39;36.57;;;21.87;;
40637;SDS011;26336;44.696;10.622;2023-02-01T16:13:45;37.50;;;21.47;;
40637;SDS011;26336;44.696;10.622;2023-02-01T16:16:49;37.87;;;20.03;;
40637;SDS011;26336;44.696;10.622;2023-02-01T16:19:54;35.37;;;21.23;;
40637;SDS011;26336;44.696;10.622;2023-02-01T16:22:58;30.63;;;21.00;;
40637;SDS011;26336;44.696;10.622;2023-02-01T16:26:02;37.27;;;21.57;;
40637;SDS011;26336;44.696;10.622;2023-02-01T16:29:07;34.53;;;20.73;;
40637;SDS011;26336;44.696;10.622;2023-02-01T16:32:20;32.47;;;21.13;;
40637;SDS011;26336;44.696;10.622;2023-02-01T16:38:30;41.90;;;22.60;;
40637;SDS011;26336;44.696;10.622;2023-02-01T16:41:34;35.43;;;21.20;;
40637;SDS011;26336;44.696;10.622;2023-02-01T16:44:41;35.37;;;22.07;;
40637;SDS011;26336;44.696;10.622;2023-02-01T16:47:49;36.17;;;22.10;;
40637;SDS011;26336;44.696;10.622;2023-02-01T16:50:58;34.67;;;20.80;;
40637;SDS011;26336;44.696;10.622;2023-02-01T16:54:04;32.97;;;21.67;;
40637;SDS011;26336;44.696;10.622;2023-02-01T16:57:11;38.30;;;22.23;;
40637;SDS011;26336;44.696;10.622;2023-02-01T17:00:18;39.57;;;23.53;;
40637;SDS011;26336;44.696;10.622;2023-02-01T17:03:23;38.80;;;23.93;;
40637;SDS011;26336;44.696;10.622;2023-02-01T17:06:27;40.07;;;23.83;;
40637;SDS011;26336;44.696;10.622;2023-02-01T17:09:32;43.33;;;25.73;;
40637;SDS011;26336;44.696;10.622;2023-02-01T17:12:36;40.13;;;25.13;;
40637;SDS011;26336;44.696;10.622;2023-02-01T17:15:40;37.63;;;23.97;;
40637;SDS011;26336;44.696;10.622;2023-02-01T17:19:10;38.20;;;24.47;;
40637;SDS011;26336;44.696;10.622;2023-02-01T17:22:19;43.07;;;24.17;;
40637;SDS011;26336;44.696;10.622;2023-02-01T17:25:23;42.33;;;26.37;;
40637;SDS011;26336;44.696;10.622;2023-02-01T17:28:29;37.53;;;23.70;;
40637;SDS011;26336;44.696;10.622;2023-02-01T17:31:36;36.33;;;24.00;;
40637;SDS011;26336;44.696;10.622;2023-02-01T17:34:45;40.10;;;24.88;;
40637;SDS011;26336;44.696;10.622;2023-02-01T17:37:50;46.87;;;25.50;;
40637;SDS011;26336;44.696;10.622;2023-02-01T17:40:56;36.50;;;23.30;;
40637;SDS011;26336;44.696;10.622;2023-02-01T17:44:03;40.30;;;25.23;;
40637;SDS011;26336;44.696;10.622;2023-02-01T17:47:06;42.80;;;27.10;;
40637;SDS011;26336;44.696;10.622;2023-02-01T17:50:10;40.00;;;26.43;;
40637;SDS011;26336;44.696;10.622;2023-02-01T17:53:14;38.50;;;23.27;;
40637;SDS011;26336;44.696;10.622;2023-02-01T17:56:20;45.83;;;25.90;;
40637;SDS011;26336;44.696;10.622;2023-02-01T17:59:25;40.87;;;25.53;;
40637;SDS011;26336;44.696;10.622;2023-02-01T18:02:29;41.97;;;26.07;;
40637;SDS011;26336;44.696;10.622;2023-02-01T18:05:40;46.83;;;25.97;;
40637;SDS011;26336;44.696;10.622;2023-02-01T18:11:50;49.10;;;28.10;;
40637;SDS011;26336;44.696;10.622;2023-02-01T18:14:57;42.80;;;26.77;;
40637;SDS011;26336;44.696;10.622;2023-02-01T18:18:01;48.70;;;26.80;;
40637;SDS011;26336;44.696;10.622;2023-02-01T18:21:05;42.40;;;27.50;;
40637;SDS011;26336;44.696;10.622;2023-02-01T18:24:12;40.07;;;25.47;;
40637;SDS011;26336;44.696;10.622;2023-02-01T18:27:17;38.53;;;27.57;;
40637;SDS011;26336;44.696;10.622;2023-02-01T18:30:23;43.53;;;27.53;;
40637;SDS011;26336;44.696;10.622;2023-02-01T18:33:31;42.03;;;26.83;;
40637;SDS011;26336;44.696;10.622;2023-02-01T18:36:35;45.53;;;30.07;;
40637;SDS011;26336;44.696;10.622;2023-02-01T18:39:39;54.30;;;34.53;;
40637;SDS011;26336;44.696;10.622;2023-02-01T18:42:42;51.93;;;33.63;;
40637;SDS011;26336;44.696;10.622;2023-02-01T18:45:46;51.23;;;30.43;;
40637;SDS011;26336;44.696;10.622;2023-02-01T18:48:50;49.23;;;30.93;;
40637;SDS011;26336;44.696;10.622;2023-02-01T18:51:54;45.17;;;27.47;;
40637;SDS011;26336;44.696;10.622;2023-02-01T18:54:58;44.00;;;27.43;;
40637;SDS011;26336;44.696;10.622;2023-02-01T18:58:03;52.83;;;29.77;;
40637;SDS011;26336;44.696;10.622;2023-02-01T19:01:12;50.40;;;32.60;;
40637;SDS011;26336;44.696;10.622;2023-02-01T19:04:18;54.77;;;33.13;;
40637;SDS011;26336;44.696;10.622;2023-02-01T19:07:21;52.00;;;32.43;;
40637;SDS011;26336;44.696;10.622;2023-02-01T19:10:25;60.00;;;35.50;;
40637;SDS011;26336;44.696;10.622;2023-02-01T19:13:30;54.53;;;32.97;;
40637;SDS011;26336;44.696;10.622;2023-02-01T19:16:34;54.97;;;32.90;;
40637;SDS011;26336;44.696;10.622;2023-02-01T19:19:42;50.97;;;31.47;;
40637;SDS011;26336;44.696;10.622;2023-02-01T19:22:46;53.00;;;33.20;;
40637;SDS011;26336;44.696;10.622;2023-02-01T19:25:50;50.57;;;30.87;;
40637;SDS011;26336;44.696;10.622;2023-02-01T19:28:56;53.97;;;31.60;;
40637;SDS011;26336;44.696;10.622;2023-02-01T19:32:01;52.03;;;33.43;;
40637;SDS011;26336;44.696;10.622;2023-02-01T19:35:05;52.03;;;31.73;;
40637;SDS011;26336;44.696;10.622;2023-02-01T19:38:10;52.83;;;32.50;;
40637;SDS011;26336;44.696;10.622;2023-02-01T19:41:14;51.73;;;33.47;;
40637;SDS011;26336;44.696;10.622;2023-02-01T19:44:18;51.53;;;31.10;;
40637;SDS011;26336;44.696;10.622;2023-02-01T19:47:22;53.63;;;31.83;;
40637;SDS011;26336;44.696;10.622;2023-02-01T19:50:26;49.97;;;30.37;;
40637;SDS011;26336;44.696;10.622;2023-02-01T19:53:30;49.67;;;30.77;;
40637;SDS011;26336;44.696;10.622;2023-02-01T19:56:34;40.00;;;27.07;;
40637;SDS011;26336;44.696;10.622;2023-02-01T19:59:39;43.53;;;27.77;;
40637;SDS011;26336;44.696;10.622;2023-02-01T20:02:43;45.73;;;27.60;;
40637;SDS011;26336;44.696;10.622;2023-02-01T20:05:57;43.87;;;28.70;;
40637;SDS011;26336;44.696;10.622;2023-02-01T20:09:02;43.07;;;28.23;;
40637;SDS011;26336;44.696;10.622;2023-02-01T20:12:07;44.47;;;27.77;;
40637;SDS011;26336;44.696;10.622;2023-02-01T20:15:11;42.93;;;27.17;;
40637;SDS011;26336;44.696;10.622;2023-02-01T20:18:15;43.20;;;29.17;;
40637;SDS011;26336;44.696;10.622;2023-02-01T20:21:19;43.40;;;28.57;;
40637;SDS011;26336;44.696;10.622;2023-02-01T20:24:25;42.10;;;26.67;;